createdAt,value
2023-04-29T00:01:59.207Z,2.57
2023-04-29T00:04:27.575Z,2.50
2023-04-29T00:06:55.590Z,2.40
2023-04-29T00:09:23.064Z,2.43
2023-04-29T00:11:51.205Z,2.50
2023-04-29T00:14:18.230Z,2.70
2023-04-29T00:16:45.373Z,2.50
2023-04-29T00:19:12.945Z,2.50
2023-04-29T00:21:40.481Z,2.50
2023-04-29T00:24:07.620Z,2.53
2023-04-29T00:26:35.285Z,2.50
2023-04-29T00:29:02.687Z,2.50
2023-04-29T00:31:29.919Z,2.53
2023-04-29T00:34:07.392Z,2.50
2023-04-29T00:36:34.956Z,2.40
2023-04-29T00:39:15.453Z,2.60
2023-04-29T00:45:45.351Z,2.50
2023-04-29T00:51:42.160Z,2.60
2023-04-29T00:57:53.364Z,2.50
2023-04-29T01:01:06.834Z,2.50
2023-04-29T01:03:41.168Z,2.53
2023-04-29T01:06:50.440Z,2.50
2023-04-29T01:09:50.708Z,2.53
2023-04-29T01:13:12.094Z,2.50
2023-04-29T01:17:04.441Z,2.57
2023-04-29T01:19:51.491Z,2.43
2023-04-29T01:22:41.883Z,2.50
2023-04-29T01:25:21.463Z,2.50
2023-04-29T01:28:52.354Z,2.40
2023-04-29T01:31:41.354Z,2.50
2023-04-29T01:34:19.945Z,2.53
2023-04-29T01:36:54.192Z,2.40
2023-04-29T01:39:52.461Z,2.47
2023-04-29T01:42:33.794Z,2.40
2023-04-29T01:45:08.473Z,2.40
2023-04-29T01:47:39.078Z,2.37
2023-04-29T01:50:07.323Z,2.40
2023-04-29T01:52:35.330Z,2.30
2023-04-29T01:55:03.605Z,2.43
2023-04-29T01:57:41.093Z,2.40
2023-04-29T02:00:31.709Z,2.50
2023-04-29T02:02:59.527Z,2.50
2023-04-29T02:05:34.233Z,2.40
2023-04-29T02:08:02.869Z,2.50
2023-04-29T02:10:32.158Z,2.50
2023-04-29T02:13:18.114Z,2.50
2023-04-29T02:15:45.819Z,2.50
2023-04-29T02:18:12.934Z,2.47
2023-04-29T02:20:41.706Z,2.50
2023-04-29T02:23:09.296Z,2.40
2023-04-29T02:25:37.220Z,2.50
2023-04-29T02:28:04.363Z,2.40
2023-04-29T02:30:32.247Z,2.50
2023-04-29T02:33:01.166Z,2.40
2023-04-29T02:35:28.678Z,2.50
2023-04-29T02:37:56.108Z,2.53
2023-04-29T02:40:25.519Z,2.43
2023-04-29T02:42:52.683Z,2.37
2023-04-29T02:45:19.769Z,2.43
2023-04-29T02:47:47.279Z,2.40
2023-04-29T02:57:08.906Z,2.43
2023-04-29T02:59:40.423Z,2.40
2023-04-29T03:02:14.961Z,2.50
2023-04-29T03:04:53.420Z,2.40
2023-04-29T03:07:34.304Z,2.40
2023-04-29T03:13:29.343Z,2.57
2023-04-29T03:16:34.631Z,2.37
2023-04-29T03:26:12.305Z,2.50
2023-04-29T03:29:12.952Z,2.50
2023-04-29T03:36:03.783Z,2.50
2023-04-29T03:38:24.488Z,2.50
2023-04-29T03:40:52.452Z,2.50
2023-04-29T03:43:21.152Z,2.50
2023-04-29T03:45:49.597Z,2.47
2023-04-29T03:48:21.271Z,2.60
2023-04-29T03:50:51.867Z,2.60
2023-04-29T03:53:19.201Z,2.50
2023-04-29T03:55:48.378Z,2.53
2023-04-29T03:58:16.911Z,2.47
2023-04-29T04:00:45.826Z,2.50
2023-04-29T04:03:19.480Z,2.50
2023-04-29T04:05:47.192Z,2.50
2023-04-29T04:08:16.400Z,2.50
2023-04-29T04:10:51.226Z,2.50
2023-04-29T04:13:33.873Z,2.50
2023-04-29T04:16:01.877Z,2.50
2023-04-29T04:18:29.556Z,2.50
2023-04-29T04:20:57.786Z,2.50
2023-04-29T04:23:26.402Z,2.60
2023-04-29T04:25:55.581Z,2.50
2023-04-29T04:28:41.063Z,2.50
2023-04-29T04:31:22.221Z,2.47
2023-04-29T04:33:50.305Z,2.50
2023-04-29T04:36:18.131Z,2.53
2023-04-29T04:38:46.001Z,2.57
2023-04-29T04:41:13.666Z,2.50
2023-04-29T04:43:44.094Z,2.43
2023-04-29T04:46:20.917Z,2.50
2023-04-29T04:48:56.729Z,2.50
2023-04-29T04:51:24.300Z,2.50
2023-04-29T04:53:52.955Z,2.40
2023-04-29T04:56:22.507Z,2.53
2023-04-29T04:58:50.402Z,2.50
2023-04-29T05:01:17.937Z,2.50
2023-04-29T05:03:45.332Z,2.43
2023-04-29T05:06:13.754Z,2.53
2023-04-29T05:08:43.573Z,2.40
2023-04-29T05:11:21.747Z,2.50
2023-04-29T05:14:05.490Z,2.40
2023-04-29T05:16:32.982Z,2.40
2023-04-29T05:19:00.553Z,2.60
2023-04-29T05:21:31.709Z,2.50
2023-04-29T05:24:00.138Z,2.50
2023-04-29T05:26:27.729Z,2.50
2023-04-29T05:29:00.728Z,2.47
2023-04-29T05:31:30.885Z,2.50
2023-04-29T05:34:02.185Z,2.50
2023-04-29T05:36:31.756Z,2.50
2023-04-29T05:38:59.318Z,2.43
2023-04-29T05:41:27.024Z,2.70
2023-04-29T05:43:54.434Z,2.40
2023-04-29T05:46:23.402Z,2.43
2023-04-29T05:48:51.482Z,2.50
2023-04-29T05:51:19.564Z,2.40
2023-04-29T05:53:46.701Z,2.37
2023-04-29T05:56:14.156Z,2.57
2023-04-29T05:58:41.734Z,2.40
2023-04-29T06:01:08.958Z,2.37
2023-04-29T06:03:37.079Z,2.37
2023-04-29T06:06:28.905Z,2.40
2023-04-29T06:09:26.460Z,2.30
2023-04-29T06:11:57.775Z,2.30
2023-04-29T06:14:25.500Z,2.30
2023-04-29T06:16:53.708Z,2.33
2023-04-29T06:19:21.184Z,2.20
2023-04-29T06:21:49.792Z,2.37
2023-04-29T06:24:18.267Z,2.50
2023-04-29T06:26:46.892Z,2.90
2023-04-29T06:29:14.509Z,2.60
2023-04-29T06:31:41.732Z,2.40
2023-04-29T06:34:09.424Z,2.40
2023-04-29T06:36:45.587Z,2.30
2023-04-29T06:39:24.300Z,2.57
2023-04-29T06:42:10.237Z,2.50
2023-04-29T06:44:47.031Z,2.50
2023-04-29T06:47:29.297Z,2.47
2023-04-29T06:50:13.462Z,2.60
2023-04-29T06:52:40.650Z,2.50
2023-04-29T06:55:08.614Z,2.40
2023-04-29T06:57:36.787Z,2.33
2023-04-29T07:00:04.983Z,2.30
2023-04-29T07:02:32.602Z,2.30
2023-04-29T07:05:00.109Z,2.20
2023-04-29T07:07:27.691Z,2.27
2023-04-29T07:09:55.588Z,2.27
2023-04-29T07:12:23.211Z,2.27
2023-04-29T07:14:54.780Z,2.20
2023-04-29T07:17:22.843Z,2.20
2023-04-29T07:19:51.456Z,2.10
2023-04-29T07:22:19.439Z,2.20
2023-04-29T07:24:46.847Z,2.20
2023-04-29T07:27:13.928Z,2.37
2023-04-29T07:29:41.322Z,2.20
2023-04-29T07:32:08.825Z,2.20
2023-04-29T07:34:38.055Z,2.20
2023-04-29T07:37:05.281Z,2.30
2023-04-29T07:39:32.733Z,2.40
2023-04-29T07:42:00.228Z,2.30
2023-04-29T07:44:27.871Z,2.17
2023-04-29T07:46:55.660Z,2.10
2023-04-29T07:49:23.733Z,2.13
2023-04-29T07:51:51.330Z,2.10
2023-04-29T07:54:19.521Z,1.97
2023-04-29T07:56:46.829Z,1.93
2023-04-29T07:59:14.417Z,1.90
2023-04-29T08:03:48.516Z,2.10
2023-04-29T08:06:20.720Z,2.03
2023-04-29T08:08:48.818Z,2.10
2023-04-29T08:11:20.505Z,2.17
2023-04-29T08:13:48.022Z,2.20
2023-04-29T08:16:15.522Z,2.10
2023-04-29T08:18:42.897Z,2.20
2023-04-29T08:21:13.686Z,2.13
2023-04-29T08:23:40.874Z,2.17
2023-04-29T08:26:10.890Z,2.17
2023-04-29T08:28:37.876Z,2.17
2023-04-29T08:31:07.359Z,2.23
2023-04-29T08:33:39.806Z,2.20
2023-04-29T08:36:11.040Z,2.20
2023-04-29T08:38:38.791Z,2.10
2023-04-29T08:41:12.187Z,2.07
2023-04-29T08:43:42.220Z,2.13
2023-04-29T08:46:11.718Z,2.10
2023-04-29T08:48:43.283Z,2.10
2023-04-29T08:51:15.206Z,2.10
2023-04-29T08:53:42.743Z,2.13
2023-04-29T08:56:23.143Z,2.03
2023-04-29T08:58:54.917Z,2.17
2023-04-29T09:01:24.227Z,2.10
2023-04-29T09:04:34.926Z,2.13
2023-04-29T09:07:02.995Z,2.30
2023-04-29T09:09:31.452Z,2.13
2023-04-29T09:11:58.968Z,2.20
2023-04-29T09:14:28.912Z,2.20
2023-04-29T09:16:56.119Z,2.10
2023-04-29T09:19:36.853Z,2.10
2023-04-29T09:22:07.901Z,2.00
2023-04-29T09:24:35.393Z,1.90
2023-04-29T09:27:03.326Z,2.20
2023-04-29T09:29:33.094Z,2.13
2023-04-29T09:32:00.661Z,2.30
2023-04-29T09:34:37.736Z,2.10
2023-04-29T09:37:24.891Z,2.17
2023-04-29T09:39:52.476Z,2.60
2023-04-29T09:42:19.768Z,2.43
2023-04-29T09:44:47.297Z,2.40
2023-04-29T09:47:14.747Z,2.40
2023-04-29T09:49:45.933Z,2.57
2023-04-29T09:52:18.202Z,2.37
2023-04-29T09:54:46.690Z,2.37
2023-04-29T09:57:15.747Z,2.50
2023-04-29T09:59:43.846Z,2.50
2023-04-29T10:02:15.965Z,2.33
2023-04-29T10:04:47.911Z,2.40
2023-04-29T10:07:18.979Z,2.27
2023-04-29T10:09:48.107Z,2.20
2023-04-29T10:12:20.986Z,2.20
2023-04-29T10:15:04.298Z,2.10
2023-04-29T10:17:46.759Z,2.27
2023-04-29T10:20:27.131Z,2.27
2023-04-29T10:22:56.902Z,2.27
2023-04-29T10:25:27.934Z,2.10
2023-04-29T10:27:56.525Z,2.17
2023-04-29T10:30:24.127Z,2.20
2023-04-29T10:32:52.991Z,2.43
2023-04-29T10:35:25.276Z,2.53
2023-04-29T10:37:54.252Z,2.57
2023-04-29T10:40:46.374Z,2.53
2023-04-29T10:43:14.885Z,2.30
2023-04-29T10:45:42.329Z,2.30
2023-04-29T10:48:13.042Z,2.10
2023-04-29T10:50:46.934Z,2.00
2023-04-29T10:53:20.080Z,2.07
2023-04-29T10:56:24.927Z,2.00
2023-04-29T11:02:28.261Z,2.07
2023-04-29T11:05:12.337Z,1.93
2023-04-29T11:07:39.495Z,1.97
2023-04-29T11:10:08.027Z,2.00
2023-04-29T11:12:36.357Z,2.10
2023-04-29T11:15:05.328Z,2.00
2023-04-29T11:17:41.224Z,2.23
2023-04-29T11:20:18.692Z,2.10
2023-04-29T11:22:52.165Z,2.07
2023-04-29T11:25:19.772Z,2.20
2023-04-29T11:27:49.594Z,2.20
2023-04-29T11:30:18.492Z,2.13
2023-04-29T11:32:46.186Z,2.20
2023-04-29T11:35:15.762Z,2.00
2023-04-29T11:37:45.601Z,2.00
2023-04-29T11:40:16.697Z,2.00
2023-04-29T11:42:49.733Z,2.20
2023-04-29T11:45:20.858Z,2.03
2023-04-29T11:47:49.646Z,2.00
2023-04-29T11:50:19.871Z,2.03
2023-04-29T11:52:49.734Z,2.10
2023-04-29T11:55:17.515Z,2.00
2023-04-29T11:57:44.983Z,2.10
2023-04-29T12:00:14.047Z,2.00
2023-04-29T12:02:47.043Z,2.13
2023-04-29T12:05:17.254Z,2.10
2023-04-29T12:07:45.470Z,2.10
2023-04-29T12:10:13.297Z,2.20
2023-04-29T12:12:43.538Z,2.20
2023-04-29T12:15:11.677Z,2.13
2023-04-29T12:17:39.779Z,2.10
2023-04-29T12:20:12.557Z,2.00
2023-04-29T12:22:43.704Z,2.20
2023-04-29T12:25:12.039Z,2.10
2023-04-29T12:27:42.716Z,2.20
2023-04-29T12:30:11.933Z,2.20
2023-04-29T12:32:39.684Z,2.20
2023-04-29T12:35:16.354Z,2.20
2023-04-29T12:37:43.856Z,2.17
2023-04-29T12:40:16.595Z,2.13
2023-04-29T12:42:45.186Z,2.00
2023-04-29T12:45:33.985Z,2.10
2023-04-29T12:48:03.298Z,2.20
2023-04-29T12:50:39.571Z,2.20
2023-04-29T12:53:09.575Z,2.10
2023-04-29T12:55:38.980Z,2.20
2023-04-29T12:58:07.284Z,2.10
2023-04-29T13:00:35.264Z,2.13
2023-04-29T13:03:04.290Z,2.23
2023-04-29T13:05:31.538Z,2.40
2023-04-29T13:07:59.034Z,2.20
2023-04-29T13:10:28.275Z,2.20
2023-04-29T13:12:55.893Z,2.20
2023-04-29T13:15:23.421Z,2.13
2023-04-29T13:17:51.591Z,2.10
2023-04-29T13:20:19.350Z,2.10
2023-04-29T13:22:46.537Z,2.20
2023-04-29T13:25:16.286Z,2.23
2023-04-29T13:27:44.156Z,2.20
2023-04-29T13:30:11.964Z,2.30
2023-04-29T13:32:46.479Z,2.20
2023-04-29T13:35:19.108Z,2.20
2023-04-29T13:37:48.085Z,2.23
2023-04-29T13:40:20.598Z,2.27
2023-04-29T13:42:50.736Z,2.20
2023-04-29T13:45:28.742Z,2.30
2023-04-29T13:48:05.721Z,2.20
2023-04-29T13:51:17.369Z,2.30
2023-04-29T13:54:04.910Z,2.20
2023-04-29T13:59:30.790Z,2.30
2023-04-29T14:04:01.311Z,2.40
2023-04-29T14:06:30.401Z,2.30
2023-04-29T14:08:58.447Z,2.30
2023-04-29T14:11:26.230Z,2.43
2023-04-29T14:13:53.803Z,2.40
2023-04-29T14:16:21.296Z,2.30
2023-04-29T14:18:48.800Z,2.40
2023-04-29T14:21:16.811Z,2.23
2023-04-29T14:23:43.934Z,2.40
2023-04-29T14:26:27.362Z,2.30
2023-04-29T14:29:00.223Z,2.40
2023-04-29T14:31:37.861Z,2.47
2023-04-29T14:34:05.983Z,2.40
2023-04-29T14:36:33.501Z,2.13
2023-04-29T14:39:01.773Z,2.23
2023-04-29T14:41:29.265Z,2.30
2023-04-29T14:43:56.555Z,2.20
2023-04-29T14:46:25.054Z,2.30
2023-04-29T14:48:52.087Z,2.30
2023-04-29T14:51:19.502Z,2.20
2023-04-29T14:53:47.022Z,2.20
2023-04-29T14:56:18.451Z,2.40
2023-04-29T14:58:46.149Z,2.50
2023-04-29T15:01:16.298Z,2.37
2023-04-29T15:03:45.226Z,2.33
2023-04-29T15:06:13.171Z,2.10
2023-04-29T15:08:43.493Z,2.30
2023-04-29T15:11:11.031Z,2.20
2023-04-29T15:13:39.015Z,2.13
2023-04-29T15:16:07.701Z,2.30
2023-04-29T15:18:35.257Z,2.37
2023-04-29T15:21:04.215Z,2.50
2023-04-29T15:23:31.448Z,2.33
2023-04-29T15:25:59.025Z,2.40
2023-04-29T15:28:26.447Z,2.43
2023-04-29T15:30:53.993Z,2.60
2023-04-29T15:33:21.560Z,2.50
2023-04-29T15:35:48.998Z,2.40
2023-04-29T15:38:16.487Z,2.30
2023-04-29T15:40:43.522Z,2.10
2023-04-29T15:43:11.014Z,2.20
2023-04-29T15:45:37.999Z,2.10
2023-04-29T15:48:06.090Z,2.20
2023-04-29T15:50:33.660Z,2.20
2023-04-29T15:53:01.146Z,2.33
2023-04-29T15:55:28.662Z,2.37
2023-04-29T15:57:56.314Z,2.30
2023-04-29T16:00:23.967Z,2.40
2023-04-29T16:02:55.382Z,2.37
2023-04-29T16:05:23.034Z,2.40
2023-04-29T16:07:53.983Z,2.40
2023-04-29T16:10:23.439Z,2.40
2023-04-29T16:12:50.942Z,2.40
2023-04-29T16:15:18.625Z,2.50
2023-04-29T16:17:46.477Z,2.47
2023-04-29T16:20:13.989Z,2.43
2023-04-29T16:22:41.194Z,2.50
2023-04-29T16:25:09.079Z,2.40
2023-04-29T16:27:36.520Z,2.40
2023-04-29T16:30:05.140Z,2.43
2023-04-29T16:32:35.033Z,2.40
2023-04-29T16:35:03.443Z,2.33
2023-04-29T16:37:31.300Z,2.40
2023-04-29T16:39:58.872Z,2.40
2023-04-29T16:42:26.264Z,2.40
2023-04-29T16:44:53.429Z,2.43
2023-04-29T16:47:21.512Z,2.37
2023-04-29T16:49:49.091Z,2.37
2023-04-29T16:52:17.055Z,2.40
2023-04-29T16:54:44.181Z,2.30
2023-04-29T16:57:11.156Z,2.50
2023-04-29T16:59:44.830Z,2.40
2023-04-29T17:02:12.358Z,2.60
2023-04-29T17:04:40.591Z,2.43
2023-04-29T17:07:09.249Z,2.40
2023-04-29T17:09:36.359Z,2.40
2023-04-29T17:12:04.072Z,2.27
2023-04-29T17:14:31.632Z,2.33
2023-04-29T17:16:58.951Z,2.30
2023-04-29T17:19:25.985Z,2.33
2023-04-29T17:21:53.572Z,2.40
2023-04-29T17:24:21.070Z,2.50
2023-04-29T17:26:48.517Z,2.30
2023-04-29T17:29:16.039Z,2.37
2023-04-29T17:31:47.906Z,2.30
2023-04-29T17:34:18.862Z,2.40
2023-04-29T17:36:47.455Z,2.50
2023-04-29T17:39:15.231Z,2.30
2023-04-29T17:41:43.090Z,2.33
2023-04-29T17:44:10.791Z,2.40
2023-04-29T17:46:38.825Z,2.40
2023-04-29T17:49:06.466Z,2.40
2023-04-29T17:51:33.982Z,2.30
2023-04-29T17:54:04.596Z,2.30
2023-04-29T17:56:34.743Z,2.37
2023-04-29T17:59:05.335Z,2.40
2023-04-29T18:01:33.389Z,2.50
2023-04-29T18:04:01.553Z,2.30
2023-04-29T18:06:30.197Z,2.30
2023-04-29T18:08:58.040Z,2.33
2023-04-29T18:11:25.992Z,2.33
2023-04-29T18:13:54.411Z,2.33
2023-04-29T18:16:22.314Z,2.30
2023-04-29T18:18:55.224Z,2.37
2023-04-29T18:21:27.325Z,2.40
2023-04-29T18:23:56.135Z,2.33
2023-04-29T18:26:24.194Z,2.40
2023-04-29T18:28:51.793Z,2.40
2023-04-29T18:31:20.237Z,2.33
2023-04-29T18:33:47.813Z,2.43
2023-04-29T18:36:14.919Z,2.40
2023-04-29T18:38:43.106Z,2.50
2023-04-29T18:41:11.814Z,2.57
2023-04-29T18:43:38.846Z,2.33
2023-04-29T18:46:05.992Z,2.53
2023-04-29T18:52:17.862Z,2.40
2023-04-29T18:54:45.888Z,2.57
2023-04-29T19:00:26.282Z,2.60
2023-04-29T19:02:59.639Z,2.70
2023-04-29T19:05:31.796Z,2.40
2023-04-29T19:08:09.321Z,2.60
2023-04-29T19:10:49.398Z,2.50
2023-04-29T19:16:22.072Z,2.57
2023-04-29T19:18:50.812Z,2.67
2023-04-29T19:21:29.913Z,2.60
2023-04-29T19:24:11.733Z,2.53
2023-04-29T19:26:41.333Z,2.60
2023-04-29T19:29:11.504Z,2.50
2023-04-29T19:32:06.983Z,2.47
2023-04-29T19:34:37.053Z,2.50
2023-04-29T19:37:04.724Z,2.57
2023-04-29T19:39:38.221Z,2.60
2023-04-29T19:42:57.104Z,2.60
2023-04-29T19:45:27.713Z,2.60
2023-04-29T19:48:01.855Z,2.67
2023-04-29T19:50:34.171Z,2.70
2023-04-29T19:53:07.117Z,2.63
2023-04-29T19:58:27.984Z,2.50
2023-04-29T20:01:06.225Z,2.43
2023-04-29T20:03:36.040Z,2.57
2023-04-29T20:06:04.150Z,2.50
2023-04-29T20:08:31.669Z,2.40
2023-04-29T20:11:00.721Z,2.60
2023-04-29T20:13:28.207Z,2.53
2023-04-29T20:15:57.215Z,2.70
2023-04-29T20:18:27.264Z,2.50
2023-04-29T20:24:14.974Z,2.40
2023-04-29T20:26:52.864Z,2.50
2023-04-29T20:29:25.861Z,2.40
2023-04-29T20:32:07.227Z,2.50
2023-04-29T20:34:58.990Z,2.50
2023-04-29T20:37:44.111Z,2.53
2023-04-29T20:40:11.992Z,2.50
2023-04-29T20:42:41.514Z,2.50
2023-04-29T20:45:22.141Z,2.50
2023-04-29T20:47:49.832Z,2.47
2023-04-29T20:50:18.024Z,2.40
2023-04-29T20:52:57.866Z,2.50
2023-04-29T20:55:37.359Z,2.60
2023-04-29T20:58:06.876Z,2.40
2023-04-29T21:00:34.389Z,2.50
2023-04-29T21:03:02.164Z,2.57
2023-04-29T21:05:29.310Z,2.50
2023-04-29T21:07:58.518Z,2.50
2023-04-29T21:10:26.097Z,2.60
2023-04-29T21:13:14.659Z,2.50
2023-04-29T21:16:30.338Z,2.50
2023-04-29T21:19:12.802Z,2.50
2023-04-29T21:21:43.642Z,2.60
2023-04-29T21:24:14.110Z,2.50
2023-04-29T21:26:41.751Z,2.53
2023-04-29T21:29:11.156Z,2.53
2023-04-29T21:31:55.934Z,2.57
2023-04-29T21:34:40.780Z,2.60
2023-04-29T21:37:20.730Z,2.40
2023-04-29T21:39:48.215Z,2.40
2023-04-29T21:42:21.026Z,2.53
2023-04-29T21:44:48.659Z,2.57
2023-04-29T21:47:16.349Z,2.60
2023-04-29T21:49:43.807Z,2.70
2023-04-29T21:52:11.273Z,2.43
2023-04-29T21:54:38.735Z,2.60
2023-04-29T21:57:06.189Z,2.60
2023-04-29T21:59:34.503Z,2.50
2023-04-29T22:02:03.859Z,2.53
2023-04-29T22:04:31.387Z,2.40
2023-04-29T22:06:58.908Z,2.47
2023-04-29T22:09:26.460Z,2.50
2023-04-29T22:11:53.833Z,2.60
2023-04-29T22:14:20.917Z,2.50
2023-04-29T22:16:48.443Z,2.57
2023-04-29T22:19:16.864Z,2.40
2023-04-29T22:21:44.784Z,2.60
2023-04-29T22:24:13.058Z,2.53
2023-04-29T22:26:41.010Z,2.60
2023-04-29T22:29:09.142Z,2.70
2023-04-29T22:31:36.747Z,2.50
2023-04-29T22:34:04.376Z,2.60
2023-04-29T22:36:32.661Z,2.50
2023-04-29T22:38:59.683Z,2.60
2023-04-29T22:41:27.210Z,2.57
2023-04-29T22:43:57.203Z,2.60
2023-04-29T22:46:25.500Z,2.63
2023-04-29T22:48:53.229Z,2.43
2023-04-29T22:51:20.255Z,2.70
2023-04-29T22:53:47.275Z,2.50
2023-04-29T22:56:14.924Z,2.50
2023-04-29T22:58:42.322Z,2.63
2023-04-29T23:01:11.362Z,2.53
2023-04-29T23:03:39.696Z,2.50
2023-04-29T23:06:07.480Z,2.50
2023-04-29T23:08:34.607Z,2.57
2023-04-29T23:11:02.111Z,2.60
2023-04-29T23:13:29.216Z,2.60
2023-04-29T23:15:57.445Z,2.60
2023-04-29T23:18:24.540Z,2.47
2023-04-29T23:20:51.943Z,2.50
2023-04-29T23:23:20.125Z,2.60
2023-04-29T23:25:47.111Z,2.50
2023-04-29T23:28:14.909Z,2.50
2023-04-29T23:30:42.780Z,2.60
2023-04-29T23:33:09.948Z,2.43
2023-04-29T23:35:37.007Z,2.40
2023-04-29T23:38:04.050Z,2.50
2023-04-29T23:40:31.844Z,2.43
2023-04-29T23:42:59.385Z,2.53
2023-04-29T23:45:26.931Z,2.60
2023-04-29T23:47:54.064Z,2.60
2023-04-29T23:50:21.177Z,2.50
2023-04-29T23:52:48.665Z,2.50
2023-04-29T23:55:15.654Z,2.40
2023-04-29T23:57:43.149Z,2.50
